Time;durP1;ratioP1;P1;durP2;ratioP2;P2;SDS_P1;SDS_P2;PMS_P1;PMS_P2;Temp;Humidity;BMP_temperature;BMP_pressure;BME280_temperature;BME280_humidity;BME280_pressure;Samples;Min_cycle;Max_cycle;Signal;HPM_P1;HPM_P2
2021/01/05 00:01:44;;;;;;;22.70;14.60;;;1.70;99.90;;;;;;5070396;28;20546;-75
2021/01/05 00:04:11;;;;;;;21.13;14.77;;;1.60;99.90;;;;;;5069528;28;20609;-74
2021/01/05 00:06:37;;;;;;;25.30;15.63;;;1.60;99.90;;;;;;5065287;28;20491;-74
2021/01/05 00:09:04;;;;;;;20.83;16.00;;;1.60;99.90;;;;;;5066517;28;21016;-74
2021/01/05 00:11:31;;;;;;;20.70;13.80;;;1.60;99.90;;;;;;5070104;28;20946;-75
2021/01/05 00:13:57;;;;;;;22.90;15.40;;;1.60;99.90;;;;;;5059637;28;20497;-74
2021/01/05 00:16:28;;;;;;;25.23;14.67;;;1.60;99.90;;;;;;5066105;28;20489;-74
2021/01/05 00:18:55;;;;;;;23.93;15.90;;;1.60;99.90;;;;;;5066681;28;20598;-75
2021/01/05 00:21:25;;;;;;;22.97;14.40;;;1.70;99.90;;;;;;5057300;28;20483;-74
2021/01/05 00:23:52;;;;;;;22.80;15.40;;;1.70;99.90;;;;;;5058070;28;20479;-76
2021/01/05 00:26:18;;;;;;;25.70;15.73;;;1.70;99.90;;;;;;5057994;28;20737;-75
2021/01/05 00:28:44;;;;;;;21.93;14.77;;;1.70;99.90;;;;;;5065999;28;20505;-76
2021/01/05 00:31:11;;;;;;;21.97;16.00;;;1.70;99.90;;;;;;5060454;28;20554;-75
2021/01/05 00:33:37;;;;;;;22.93;15.13;;;1.80;99.90;;;;;;5055920;28;20542;-75
2021/01/05 00:36:05;;;;;;;21.67;14.77;;;1.80;99.90;;;;;;5055855;28;20534;-75
2021/01/05 00:38:32;;;;;;;21.00;14.73;;;1.80;99.90;;;;;;5070350;28;20455;-75
2021/01/05 00:40:58;;;;;;;22.43;14.97;;;1.80;99.90;;;;;;5053828;28;20507;-74
2021/01/05 00:43:24;;;;;;;24.07;13.70;;;1.80;99.90;;;;;;5067016;28;21451;-75
2021/01/05 00:45:51;;;;;;;19.53;14.43;;;1.80;99.90;;;;;;5060084;28;20547;-75
2021/01/05 00:48:17;;;;;;;20.50;14.67;;;1.80;99.90;;;;;;5051362;28;20577;-76
2021/01/05 00:50:44;;;;;;;21.03;14.80;;;1.90;99.90;;;;;;5064719;28;20467;-76
2021/01/05 00:53:11;;;;;;;25.60;15.20;;;1.90;99.90;;;;;;5070585;28;20885;-75
2021/01/05 00:55:37;;;;;;;23.03;14.20;;;1.90;99.90;;;;;;5069079;28;20521;-75
2021/01/05 00:58:04;;;;;;;20.30;14.40;;;1.90;99.90;;;;;;5062375;28;20447;-74
2021/01/05 01:00:31;;;;;;;20.40;14.67;;;1.90;99.90;;;;;;5062463;28;20541;-74
2021/01/05 01:02:58;;;;;;;19.20;14.23;;;1.80;99.90;;;;;;5070047;28;20447;-74
2021/01/05 01:05:24;;;;;;;21.20;13.63;;;1.80;99.90;;;;;;5069280;28;20508;-74
2021/01/05 01:07:51;;;;;;;20.27;14.93;;;1.90;99.90;;;;;;5068979;28;20514;-75
2021/01/05 01:10:18;;;;;;;19.90;14.33;;;1.90;99.90;;;;;;5061084;28;20866;-74
2021/01/05 01:12:45;;;;;;;21.03;14.03;;;1.90;99.90;;;;;;5049935;28;21043;-74
2021/01/05 01:15:14;;;;;;;22.43;14.23;;;1.80;99.90;;;;;;5054403;28;20570;-74
2021/01/05 01:17:40;;;;;;;21.97;14.37;;;1.80;99.90;;;;;;5058862;28;20537;-75
2021/01/05 01:20:08;;;;;;;25.37;16.93;;;1.80;99.90;;;;;;5061407;28;20578;-75
2021/01/05 01:22:34;;;;;;;23.67;14.13;;;1.70;99.90;;;;;;5068830;28;20550;-75
2021/01/05 01:25:01;;;;;;;21.87;15.00;;;1.70;99.90;;;;;;5071014;28;20506;-75
2021/01/05 01:27:28;;;;;;;22.47;14.00;;;1.70;99.90;;;;;;5066253;28;20531;-76
2021/01/05 01:29:55;;;;;;;22.80;14.60;;;1.80;99.90;;;;;;5071720;28;21101;-75
2021/01/05 01:32:21;;;;;;;21.07;14.40;;;1.80;99.90;;;;;;5072506;28;20518;-75
2021/01/05 01:34:47;;;;;;;23.80;15.17;;;1.70;99.90;;;;;;5072922;28;20546;-75
2021/01/05 01:37:16;;;;;;;21.67;14.23;;;1.80;99.90;;;;;;5065567;28;20479;-74
2021/01/05 01:39:43;;;;;;;25.00;14.40;;;1.90;99.90;;;;;;5071833;28;20529;-77
2021/01/05 01:42:11;;;;;;;19.50;14.50;;;1.80;99.90;;;;;;5051801;28;20558;-74
2021/01/05 01:44:41;;;;;;;21.50;13.43;;;1.90;99.90;;;;;;5052507;28;20591;-75
2021/01/05 01:47:12;;;;;;;20.50;13.80;;;1.90;99.90;;;;;;5050145;28;20548;-75
2021/01/05 01:49:39;;;;;;;20.73;14.70;;;2.00;99.90;;;;;;5065892;28;20901;-76
2021/01/05 01:52:09;;;;;;;23.93;16.10;;;1.90;99.90;;;;;;5065119;28;20460;-75
2021/01/05 01:55:14;;;;;;;21.73;14.93;;;1.90;99.90;;;;;;5067454;28;20529;-75
2021/01/05 01:58:14;;;;;;;20.70;13.40;;;1.90;99.90;;;;;;5068323;28;20482;-75
2021/01/05 02:00:53;;;;;;;18.67;12.53;;;1.90;99.90;;;;;;5073089;28;20530;-75
2021/01/05 02:03:38;;;;;;;23.70;15.37;;;2.00;99.90;;;;;;5072178;28;20814;-75
2021/01/05 02:06:11;;;;;;;19.67;13.63;;;2.00;99.90;;;;;;5071458;28;20525;-73
2021/01/05 02:08:44;;;;;;;21.70;13.43;;;2.00;99.90;;;;;;5070092;28;20457;-75
2021/01/05 02:11:21;;;;;;;25.07;14.93;;;2.10;99.90;;;;;;5071669;28;20542;-74
2021/01/05 02:14:02;;;;;;;19.83;14.20;;;2.10;99.90;;;;;;5071439;28;20441;-74
2021/01/05 02:16:38;;;;;;;19.67;13.10;;;2.10;99.90;;;;;;5070904;28;20870;-74
2021/01/05 02:19:09;;;;;;;23.93;15.23;;;2.10;99.90;;;;;;5071318;28;20935;-74
2021/01/05 02:21:41;;;;;;;22.93;14.43;;;2.00;99.90;;;;;;5071356;28;20907;-76
2021/01/05 02:24:31;;;;;;;23.17;15.57;;;2.00;99.90;;;;;;5071208;28;20566;-75
2021/01/05 02:27:03;;;;;;;23.77;15.27;;;2.00;99.90;;;;;;5070699;28;20468;-75
2021/01/05 02:29:36;;;;;;;27.63;15.40;;;2.00;99.90;;;;;;5071110;28;20435;-75
2021/01/05 02:32:14;;;;;;;21.83;14.90;;;2.00;99.90;;;;;;5071088;28;20812;-75
2021/01/05 02:34:57;;;;;;;21.67;14.63;;;1.90;99.90;;;;;;5070589;28;20454;-75
2021/01/05 02:37:30;;;;;;;22.47;15.13;;;1.90;99.90;;;;;;5070234;28;20442;-75
2021/01/05 02:40:22;;;;;;;26.90;15.00;;;1.90;99.90;;;;;;5071216;28;20918;-75
2021/01/05 02:43:39;;;;;;;24.50;15.07;;;1.90;99.90;;;;;;5070672;28;21038;-75
2021/01/05 02:46:27;;;;;;;22.93;15.17;;;1.80;99.90;;;;;;5028016;28;20606;-74
2021/01/05 02:49:19;;;;;;;24.70;15.37;;;1.80;99.90;;;;;;5070675;28;20446;-75
2021/01/05 02:52:14;;;;;;;23.40;15.80;;;1.90;99.90;;;;;;5070543;28;20550;-75
2021/01/05 02:55:03;;;;;;;23.60;14.83;;;1.90;99.90;;;;;;5070737;28;20440;-75
2021/01/05 02:57:48;;;;;;;25.37;14.63;;;1.90;99.90;;;;;;5070073;28;20529;-75
2021/01/05 03:00:43;;;;;;;23.60;15.20;;;1.90;99.90;;;;;;5070745;28;20531;-75
2021/01/05 03:03:49;;;;;;;26.23;16.60;;;1.80;99.90;;;;;;5070715;28;20449;-75
2021/01/05 03:06:36;;;;;;;26.17;15.30;;;1.80;99.90;;;;;;5069784;28;20538;-75
2021/01/05 03:09:45;;;;;;;23.90;16.23;;;1.80;99.90;;;;;;5070509;28;20540;-75
2021/01/05 03:12:36;;;;;;;23.43;15.60;;;1.80;99.90;;;;;;5070258;28;20550;-75
2021/01/05 03:15:15;;;;;;;25.43;15.27;;;1.80;99.90;;;;;;5070309;28;20951;-75
2021/01/05 03:17:49;;;;;;;23.00;14.20;;;1.90;99.90;;;;;;5069692;28;20466;-75
2021/01/05 03:20:23;;;;;;;24.67;17.00;;;1.90;99.90;;;;;;5070113;28;20537;-75
2021/01/05 03:22:55;;;;;;;22.63;15.53;;;1.90;99.90;;;;;;5070149;28;20877;-75
2021/01/05 03:25:24;;;;;;;24.30;16.13;;;1.90;99.90;;;;;;5070118;28;20851;-75
2021/01/05 03:27:54;;;;;;;21.00;15.00;;;2.00;99.90;;;;;;5069373;28;20454;-75
2021/01/05 03:30:27;;;;;;;23.10;16.03;;;2.00;99.90;;;;;;5069342;28;20462;-75
2021/01/05 03:32:54;;;;;;;29.47;17.03;;;1.90;99.90;;;;;;5069036;28;20914;-75
2021/01/05 03:35:20;;;;;;;26.83;17.40;;;2.00;99.90;;;;;;5069553;28;20837;-75
2021/01/05 03:37:46;;;;;;;25.80;18.07;;;2.00;99.90;;;;;;5069268;28;20502;-75
2021/01/05 03:40:14;;;;;;;29.33;17.60;;;2.00;99.90;;;;;;5069583;28;20447;-75
2021/01/05 03:42:41;;;;;;;27.80;16.97;;;1.90;99.90;;;;;;5069495;28;20467;-75
2021/01/05 03:45:08;;;;;;;28.73;16.30;;;1.90;99.90;;;;;;5069528;28;20475;-75
2021/01/05 03:47:35;;;;;;;28.60;17.03;;;1.90;99.90;;;;;;5068088;28;20447;-75
2021/01/05 03:50:01;;;;;;;28.13;18.10;;;1.90;99.90;;;;;;5069460;28;20986;-75
2021/01/05 03:52:28;;;;;;;24.00;17.50;;;1.90;99.90;;;;;;5069278;28;20550;-75
2021/01/05 03:54:54;;;;;;;33.10;19.73;;;2.00;99.90;;;;;;5069235;28;20538;-75
2021/01/05 03:57:21;;;;;;;29.07;17.50;;;2.00;99.90;;;;;;5068843;28;20952;-75
2021/01/05 03:59:48;;;;;;;28.70;17.17;;;2.10;99.90;;;;;;5069342;28;20530;-75
2021/01/05 04:02:14;;;;;;;30.03;18.60;;;2.10;99.90;;;;;;5069336;28;20541;-75
2021/01/05 04:04:40;;;;;;;25.60;17.20;;;2.10;99.90;;;;;;5069164;28;20483;-75
2021/01/05 04:07:07;;;;;;;28.67;18.57;;;2.20;99.90;;;;;;5068743;28;20546;-75
2021/01/05 04:09:33;;;;;;;26.53;17.53;;;2.20;99.90;;;;;;5069252;28;20525;-75
2021/01/05 04:11:59;;;;;;;27.87;17.80;;;2.30;99.90;;;;;;5069228;28;20558;-75
2021/01/05 04:14:27;;;;;;;34.63;21.10;;;2.30;99.90;;;;;;5069190;28;20482;-75
2021/01/05 04:16:53;;;;;;;28.73;19.57;;;2.20;99.90;;;;;;5068410;28;20518;-75
2021/01/05 04:19:19;;;;;;;26.70;17.70;;;2.30;99.90;;;;;;5069242;28;20454;-75
2021/01/05 04:21:49;;;;;;;30.07;20.10;;;2.20;99.90;;;;;;5069062;28;20463;-75
2021/01/05 04:24:16;;;;;;;27.13;18.07;;;2.20;99.90;;;;;;5068956;28;20483;-75
2021/01/05 04:26:42;;;;;;;25.87;17.43;;;2.20;99.90;;;;;;5068354;28;20470;-75
2021/01/05 04:29:08;;;;;;;29.60;18.97;;;2.20;99.90;;;;;;5068880;28;20860;-75
2021/01/05 04:31:39;;;;;;;29.50;18.73;;;2.20;99.90;;;;;;5068632;28;21211;-75
2021/01/05 04:34:07;;;;;;;28.87;19.50;;;2.30;99.90;;;;;;5068770;28;20508;-75
2021/01/05 04:36:33;;;;;;;29.17;18.30;;;2.30;99.90;;;;;;5067984;28;21058;-75
2021/01/05 04:39:01;;;;;;;31.07;20.20;;;2.20;99.90;;;;;;5068816;28;20451;-75
2021/01/05 04:41:28;;;;;;;30.20;18.77;;;2.30;99.90;;;;;;5068617;28;20550;-75
2021/01/05 04:43:59;;;;;;;28.53;19.03;;;2.30;99.90;;;;;;5068679;28;20504;-75
2021/01/05 04:46:47;;;;;;;29.50;19.70;;;2.40;99.90;;;;;;5068174;28;20848;-75
2021/01/05 04:49:32;;;;;;;27.40;17.37;;;2.30;99.90;;;;;;5068371;28;20500;-75
2021/01/05 04:52:03;;;;;;;25.87;18.63;;;2.30;99.90;;;;;;5068375;28;20466;-75
2021/01/05 04:54:35;;;;;;;30.70;19.17;;;2.30;99.90;;;;;;5068583;28;20822;-75
2021/01/05 04:57:09;;;;;;;28.00;18.00;;;2.30;99.90;;;;;;5068067;28;20550;-75
2021/01/05 04:59:42;;;;;;;28.70;19.27;;;2.30;99.90;;;;;;5068674;28;20443;-75
2021/01/05 05:02:21;;;;;;;29.37;18.10;;;2.30;99.90;;;;;;5068354;28;21166;-75
2021/01/05 05:04:57;;;;;;;28.13;19.30;;;2.30;99.90;;;;;;5068273;28;20470;-75
2021/01/05 05:07:39;;;;;;;24.53;17.93;;;2.30;99.90;;;;;;5067825;28;20998;-76
2021/01/05 05:10:11;;;;;;;31.43;19.23;;;2.30;99.90;;;;;;5068313;28;20529;-75
2021/01/05 05:12:46;;;;;;;26.43;18.40;;;2.30;99.90;;;;;;5068566;28;20550;-74
2021/01/05 05:15:32;;;;;;;31.17;18.60;;;2.30;99.90;;;;;;5068349;28;20449;-75
2021/01/05 05:18:08;;;;;;;24.30;17.50;;;2.30;99.90;;;;;;5068372;28;20541;-75
2021/01/05 05:20:47;;;;;;;28.60;17.77;;;2.30;99.90;;;;;;5068834;28;20480;-75
2021/01/05 05:23:32;;;;;;;27.43;17.90;;;2.30;99.90;;;;;;5068275;28;20529;-75
2021/01/05 05:26:07;;;;;;;28.70;19.10;;;2.30;99.90;;;;;;5067664;28;20516;-74
2021/01/05 05:28:43;;;;;;;28.00;17.30;;;2.30;99.90;;;;;;5068307;28;20443;-75
2021/01/05 05:31:13;;;;;;;26.33;19.47;;;2.30;99.90;;;;;;5068651;28;20554;-75
2021/01/05 05:33:40;;;;;;;27.60;18.67;;;2.40;99.90;;;;;;5068205;28;20442;-74
2021/01/05 05:36:21;;;;;;;25.67;18.03;;;2.40;99.90;;;;;;5067513;28;20439;-74
2021/01/05 05:39:02;;;;;;;27.57;19.20;;;2.40;99.90;;;;;;5068447;28;20530;-75
2021/01/05 05:41:36;;;;;;;29.13;19.27;;;2.40;99.90;;;;;;5068180;28;20467;-75
2021/01/05 05:44:22;;;;;;;26.30;18.63;;;2.40;99.90;;;;;;5068099;28;20506;-76
2021/01/05 05:46:54;;;;;;;24.20;16.87;;;2.40;99.90;;;;;;5067465;28;20531;-75
2021/01/05 05:49:45;;;;;;;21.60;16.00;;;2.50;99.90;;;;;;5068422;28;20446;-75
2021/01/05 05:52:26;;;;;;;25.87;17.47;;;2.50;99.90;;;;;;5068191;28;20463;-75
2021/01/05 05:54:54;;;;;;;24.37;16.67;;;2.50;99.90;;;;;;5068075;28;20453;-75
2021/01/05 05:57:35;;;;;;;27.50;19.20;;;2.40;99.90;;;;;;5067787;28;20538;-75
2021/01/05 06:00:15;;;;;;;30.70;18.17;;;2.40;99.90;;;;;;5068451;28;20450;-75
2021/01/05 06:02:41;;;;;;;23.53;16.10;;;2.40;99.90;;;;;;5068304;28;20467;-75
2021/01/05 06:05:20;;;;;;;24.63;17.23;;;2.40;99.90;;;;;;5067975;28;20479;-75
2021/01/05 06:07:47;;;;;;;27.23;18.07;;;2.50;99.90;;;;;;5067375;28;20469;-75
2021/01/05 06:10:14;;;;;;;23.10;17.20;;;2.50;99.90;;;;;;5068991;28;20864;-75
2021/01/05 06:12:40;;;;;;;27.63;18.40;;;2.60;99.90;;;;;;5071537;28;20500;-74
2021/01/05 06:15:08;;;;;;;23.50;17.17;;;2.50;99.90;;;;;;5071389;28;20447;-74
2021/01/05 06:17:34;;;;;;;24.07;16.97;;;2.40;99.90;;;;;;5070733;28;20550;-74
2021/01/05 06:20:01;;;;;;;25.67;17.40;;;2.40;99.90;;;;;;5071281;28;20443;-75
2021/01/05 06:22:27;;;;;;;26.07;17.57;;;2.40;99.90;;;;;;5070928;28;21046;-74
2021/01/05 06:24:54;;;;;;;23.93;17.63;;;2.40;99.90;;;;;;5071136;28;21006;-74
2021/01/05 06:27:21;;;;;;;25.13;17.60;;;2.40;99.90;;;;;;5070598;28;20534;-74
2021/01/05 06:29:47;;;;;;;24.60;16.70;;;2.40;99.90;;;;;;5071213;28;20533;-74
2021/01/05 06:32:13;;;;;;;25.17;17.27;;;2.50;99.90;;;;;;5071137;28;20463;-74
2021/01/05 06:34:40;;;;;;;24.37;16.00;;;2.50;99.90;;;;;;5070961;28;20570;-75
2021/01/05 06:37:06;;;;;;;24.20;16.23;;;2.60;99.90;;;;;;5070643;28;20562;-75
2021/01/05 06:39:33;;;;;;;26.57;17.07;;;2.60;99.90;;;;;;5071142;28;20580;-75
2021/01/05 06:42:00;;;;;;;23.60;16.40;;;2.50;99.90;;;;;;5070965;28;21040;-76
2021/01/05 06:44:27;;;;;;;22.37;16.77;;;2.50;99.90;;;;;;5070751;28;20479;-76
2021/01/05 06:46:53;;;;;;;23.57;16.20;;;2.30;99.90;;;;;;5070201;28;20443;-76
2021/01/05 06:49:26;;;;;;;27.23;18.10;;;2.30;99.90;;;;;;5070765;28;20447;-76
2021/01/05 06:51:53;;;;;;;26.67;17.17;;;2.30;99.90;;;;;;5070975;28;20856;-74
2021/01/05 06:54:19;;;;;;;25.27;17.67;;;2.30;99.90;;;;;;5070668;28;20943;-76
2021/01/05 06:56:50;;;;;;;27.60;17.30;;;2.30;99.90;;;;;;5069867;28;20826;-75
2021/01/05 06:59:17;;;;;;;26.77;17.20;;;2.40;99.90;;;;;;5070424;28;20458;-75
2021/01/05 07:01:50;;;;;;;21.70;15.80;;;2.40;99.90;;;;;;5070321;28;20467;-75
2021/01/05 07:04:16;;;;;;;24.10;17.20;;;2.40;99.90;;;;;;5070241;28;20451;-74
2021/01/05 07:06:43;;;;;;;23.50;17.73;;;2.50;99.90;;;;;;5069548;28;20526;-74
2021/01/05 07:09:10;;;;;;;22.63;17.73;;;2.60;99.90;;;;;;5070335;28;20751;-74
2021/01/05 07:11:36;;;;;;;20.00;16.33;;;2.70;99.90;;;;;;5070082;28;21000;-74
2021/01/05 07:14:02;;;;;;;26.30;15.57;;;2.70;99.90;;;;;;5070241;28;20453;-75
2021/01/05 07:16:30;;;;;;;23.87;17.13;;;2.60;99.90;;;;;;5069580;28;20506;-75
2021/01/05 07:18:56;;;;;;;20.90;15.93;;;2.60;99.90;;;;;;5070359;28;20524;-75
2021/01/05 07:21:23;;;;;;;21.43;16.07;;;2.50;99.90;;;;;;5069070;28;20528;-74
2021/01/05 07:23:49;;;;;;;20.70;15.57;;;2.50;99.90;;;;;;5069733;28;20507;-75
2021/01/05 07:26:16;;;;;;;22.10;16.40;;;2.60;99.90;;;;;;5069011;28;20539;-74
2021/01/05 07:28:42;;;;;;;23.83;16.87;;;2.60;99.90;;;;;;5069814;28;20451;-74
2021/01/05 07:31:09;;;;;;;21.47;15.03;;;2.70;99.90;;;;;;5069638;28;20471;-74
2021/01/05 07:33:37;;;;;;;20.60;15.60;;;2.70;99.90;;;;;;5069615;28;21120;-74
2021/01/05 07:36:06;;;;;;;23.20;14.23;;;2.60;99.90;;;;;;5069143;28;20451;-75
2021/01/05 07:38:32;;;;;;;22.87;16.30;;;2.60;99.90;;;;;;5069855;28;20882;-74
2021/01/05 07:40:59;;;;;;;22.30;14.93;;;2.60;99.90;;;;;;5069681;28;20475;-75
2021/01/05 07:43:25;;;;;;;22.10;15.03;;;2.60;99.90;;;;;;5069943;28;20530;-74
2021/01/05 07:45:52;;;;;;;23.07;15.53;;;2.60;99.90;;;;;;5069220;28;20585;-75
2021/01/05 07:48:18;;;;;;;20.67;15.50;;;2.60;99.90;;;;;;5069433;28;20443;-74
2021/01/05 07:50:45;;;;;;;22.53;14.47;;;2.60;99.90;;;;;;5069557;28;20473;-74
2021/01/05 07:53:12;;;;;;;21.03;15.40;;;2.60;99.90;;;;;;5069323;28;20494;-74
2021/01/05 07:55:39;;;;;;;20.80;14.37;;;2.60;99.90;;;;;;5069343;28;20841;-76
2021/01/05 07:58:05;;;;;;;23.47;16.90;;;2.50;99.90;;;;;;5069577;28;20545;-75
2021/01/05 08:00:32;;;;;;;21.83;16.97;;;2.50;99.90;;;;;;5069373;28;20537;-74
2021/01/05 08:02:58;;;;;;;22.10;15.20;;;2.50;99.90;;;;;;5069377;28;20526;-75
2021/01/05 08:05:27;;;;;;;21.53;15.77;;;2.60;99.90;;;;;;5069085;28;20479;-74
2021/01/05 08:07:56;;;;;;;20.40;16.13;;;2.60;99.90;;;;;;5068449;28;20451;-74
2021/01/05 08:10:25;;;;;;;21.40;15.60;;;2.70;99.90;;;;;;5069018;28;21028;-74
2021/01/05 08:12:51;;;;;;;21.40;14.97;;;2.70;99.90;;;;;;5069473;28;21171;-74
2021/01/05 08:15:20;;;;;;;19.90;14.43;;;2.70;99.90;;;;;;5069142;28;20443;-74
2021/01/05 08:17:47;;;;;;;20.60;14.53;;;2.60;99.90;;;;;;5068556;28;20530;-74
2021/01/05 08:20:17;;;;;;;18.70;14.20;;;2.60;99.90;;;;;;5068974;28;20534;-74
2021/01/05 08:22:43;;;;;;;23.20;16.37;;;2.50;99.90;;;;;;5068632;28;20495;-74
2021/01/05 08:25:11;;;;;;;22.60;16.27;;;2.50;99.90;;;;;;5068582;28;20574;-74
2021/01/05 08:27:38;;;;;;;21.33;15.93;;;2.50;99.90;;;;;;5068161;28;20447;-74
2021/01/05 08:30:06;;;;;;;20.50;14.27;;;2.50;99.90;;;;;;5068812;28;20451;-74
2021/01/05 08:32:33;;;;;;;20.43;14.47;;;2.50;99.90;;;;;;5068421;28;20498;-74
2021/01/05 08:35:00;;;;;;;23.37;16.47;;;2.30;99.90;;;;;;5068463;28;20889;-74
2021/01/05 08:37:26;;;;;;;23.77;16.70;;;2.40;99.90;;;;;;5067807;28;20483;-75
2021/01/05 08:39:53;;;;;;;20.37;14.67;;;2.40;99.90;;;;;;5068661;28;20482;-74
2021/01/05 08:42:20;;;;;;;19.70;14.67;;;2.50;99.90;;;;;;5068846;28;20538;-75
2021/01/05 08:44:46;;;;;;;23.30;15.60;;;2.50;99.90;;;;;;5068514;28;20634;-74
2021/01/05 08:47:12;;;;;;;22.67;16.27;;;2.50;99.90;;;;;;5067808;28;20822;-75
2021/01/05 08:49:39;;;;;;;23.70;16.33;;;2.50;99.90;;;;;;5068565;28;20580;-75
2021/01/05 08:52:05;;;;;;;24.73;17.97;;;2.50;99.90;;;;;;5068469;28;20499;-75
2021/01/05 08:54:31;;;;;;;23.13;16.77;;;2.50;99.90;;;;;;5068478;28;20474;-75
2021/01/05 08:57:00;;;;;;;19.50;14.40;;;2.50;99.90;;;;;;5067882;28;20579;-75
2021/01/05 08:59:27;;;;;;;24.10;16.20;;;2.50;99.90;;;;;;5068221;28;21089;-75
2021/01/05 09:01:54;;;;;;;23.63;17.90;;;2.50;99.90;;;;;;5068206;28;20546;-76
2021/01/05 09:04:20;;;;;;;23.40;15.57;;;2.60;99.90;;;;;;5068156;28;20541;-76
2021/01/05 09:06:50;;;;;;;24.70;17.70;;;2.60;99.90;;;;;;5067554;28;20874;-74
2021/01/05 09:09:17;;;;;;;25.10;17.50;;;2.60;99.90;;;;;;5067349;28;20559;-73
2021/01/05 09:11:44;;;;;;;24.10;17.53;;;2.70;99.90;;;;;;5068225;28;20550;-73
2021/01/05 09:14:11;;;;;;;23.87;16.43;;;2.70;99.90;;;;;;5068244;28;20446;-73
2021/01/05 09:16:38;;;;;;;24.60;17.27;;;2.70;99.90;;;;;;5067626;28;20534;-71
2021/01/05 09:19:04;;;;;;;22.90;16.93;;;2.70;99.90;;;;;;5068529;28;20534;-74
2021/01/05 09:21:31;;;;;;;22.60;16.20;;;2.70;99.90;;;;;;5068483;28;20541;-74
2021/01/05 09:23:59;;;;;;;20.03;15.80;;;2.70;99.90;;;;;;5068633;28;20888;-72
2021/01/05 09:26:27;;;;;;;26.07;16.77;;;2.80;99.90;;;;;;5067539;28;20482;-71
2021/01/05 09:28:53;;;;;;;26.97;17.10;;;2.70;99.90;;;;;;5068077;28;20447;-72
2021/01/05 09:31:20;;;;;;;23.97;15.63;;;2.70;99.90;;;;;;5067922;28;20470;-72
2021/01/05 09:33:47;;;;;;;22.70;16.00;;;2.70;99.90;;;;;;5067791;28;20450;-73
2021/01/05 09:36:14;;;;;;;26.27;17.30;;;2.70;99.90;;;;;;5067492;28;20435;-75
2021/01/05 09:38:42;;;;;;;23.60;16.20;;;2.80;99.90;;;;;;5068092;28;20887;-74
2021/01/05 09:41:19;;;;;;;22.43;16.33;;;2.80;99.90;;;;;;5067791;28;21044;-71
2021/01/05 09:43:46;;;;;;;23.53;16.07;;;2.80;99.90;;;;;;5062068;28;20461;-72
2021/01/05 09:46:13;;;;;;;26.03;17.23;;;2.80;99.90;;;;;;5060231;28;20475;-75
2021/01/05 09:48:39;;;;;;;23.50;17.00;;;2.80;99.90;;;;;;5070589;28;20447;-76
2021/01/05 09:51:07;;;;;;;22.77;17.20;;;2.90;99.90;;;;;;5071665;28;20551;-76
2021/01/05 09:53:33;;;;;;;20.90;15.87;;;2.90;99.90;;;;;;5071760;28;21019;-75
2021/01/05 09:55:59;;;;;;;22.03;16.70;;;2.90;99.90;;;;;;5071055;28;21186;-74
2021/01/05 09:58:26;;;;;;;22.47;16.30;;;2.90;99.90;;;;;;5071247;28;20545;-76
2021/01/05 10:00:52;;;;;;;26.67;19.10;;;3.00;99.90;;;;;;5071341;28;20498;-76
2021/01/05 10:03:19;;;;;;;20.90;16.40;;;3.00;99.90;;;;;;5071413;28;20939;-76
2021/01/05 10:05:45;;;;;;;22.27;15.27;;;3.10;99.90;;;;;;5064685;28;21466;-76
2021/01/05 10:08:13;;;;;;;20.80;14.97;;;3.20;99.90;;;;;;5059319;28;20917;-76
2021/01/05 10:10:39;;;;;;;21.17;15.53;;;3.30;99.90;;;;;;5070688;28;20455;-72
2021/01/05 10:13:05;;;;;;;25.50;16.23;;;3.30;99.90;;;;;;5069216;28;20595;-72
2021/01/05 10:15:32;;;;;;;20.67;14.90;;;3.30;99.90;;;;;;5071694;28;20446;-75
2021/01/05 10:17:58;;;;;;;22.77;15.23;;;3.20;99.90;;;;;;5068793;28;20446;-71
2021/01/05 10:20:25;;;;;;;24.80;16.23;;;3.30;99.90;;;;;;5070500;28;20529;-72
2021/01/05 10:22:51;;;;;;;19.20;14.63;;;3.20;99.90;;;;;;5070622;28;20577;-77
2021/01/05 10:25:19;;;;;;;22.10;15.30;;;3.20;99.90;;;;;;5070750;28;20478;-76
2021/01/05 10:27:45;;;;;;;21.70;16.27;;;3.20;99.90;;;;;;5069036;28;20534;-76
2021/01/05 10:30:12;;;;;;;19.37;14.50;;;3.20;99.90;;;;;;5070028;28;20859;-76
2021/01/05 10:32:42;;;;;;;19.90;15.53;;;3.20;99.90;;;;;;5063742;28;20485;-76
2021/01/05 10:35:09;;;;;;;22.83;15.70;;;3.30;99.90;;;;;;5069883;28;20455;-76
2021/01/05 10:37:35;;;;;;;20.73;15.60;;;3.20;99.90;;;;;;5070776;28;20486;-77
2021/01/05 10:40:02;;;;;;;22.13;15.93;;;3.20;99.90;;;;;;5070676;28;20530;-76
2021/01/05 10:42:29;;;;;;;24.90;15.63;;;3.30;99.90;;;;;;5062027;28;20460;-76
2021/01/05 10:44:56;;;;;;;23.00;16.90;;;3.40;99.90;;;;;;5067964;28;20561;-77
2021/01/05 10:47:22;;;;;;;20.17;15.27;;;3.50;99.90;;;;;;5069080;28;20890;-76
2021/01/05 10:49:48;;;;;;;20.20;15.70;;;3.50;99.90;;;;;;5065927;28;20534;-76
2021/01/05 10:52:17;;;;;;;19.70;13.93;;;3.60;99.90;;;;;;5071381;28;20554;-76
2021/01/05 10:54:43;;;;;;;20.37;14.00;;;3.70;99.90;;;;;;5069987;28;20466;-78
2021/01/05 10:57:10;;;;;;;22.10;15.63;;;3.70;99.90;;;;;;5069708;28;20475;-76
2021/01/05 10:59:40;;;;;;;24.83;16.30;;;3.60;99.90;;;;;;5071064;28;20462;-76
2021/01/05 11:02:09;;;;;;;21.93;15.33;;;3.60;99.90;;;;;;5079975;28;20531;-75
2021/01/05 11:04:37;;;;;;;18.10;14.37;;;3.60;99.90;;;;;;5077622;28;20508;-76
2021/01/05 11:07:05;;;;;;;21.60;15.63;;;3.60;99.90;;;;;;5072172;28;20450;-76
2021/01/05 11:09:32;;;;;;;22.57;15.70;;;3.60;99.90;;;;;;5070239;28;20483;-76
2021/01/05 11:12:01;;;;;;;22.43;15.50;;;3.60;99.90;;;;;;5069051;28;20465;-74
2021/01/05 11:14:27;;;;;;;22.40;14.43;;;3.60;99.90;;;;;;5069394;28;20459;-75
2021/01/05 11:16:55;;;;;;;21.33;14.50;;;3.50;99.90;;;;;;5061734;28;20960;-75
2021/01/05 11:19:22;;;;;;;21.90;16.17;;;3.50;99.90;;;;;;5066607;28;20545;-77
2021/01/05 11:21:50;;;;;;;21.33;13.83;;;3.40;99.90;;;;;;5067329;28;20455;-79
2021/01/05 11:24:16;;;;;;;23.77;15.33;;;3.40;99.90;;;;;;5058947;28;20570;-76
2021/01/05 11:26:43;;;;;;;24.80;15.80;;;3.50;99.90;;;;;;5056800;28;20476;-76
2021/01/05 11:29:10;;;;;;;20.30;15.13;;;3.40;99.90;;;;;;5066812;28;20946;-75
2021/01/05 11:31:36;;;;;;;21.60;16.00;;;3.40;99.90;;;;;;5068543;28;20463;-76
2021/01/05 11:34:03;;;;;;;27.27;17.30;;;3.40;99.90;;;;;;5068442;28;20504;-76
2021/01/05 11:36:30;;;;;;;22.47;15.40;;;3.40;99.90;;;;;;5066441;28;20440;-75
2021/01/05 11:38:58;;;;;;;23.73;16.17;;;3.40;99.90;;;;;;5060325;28;20980;-77
2021/01/05 11:41:26;;;;;;;23.33;15.03;;;3.40;99.90;;;;;;5067574;28;20542;-78
2021/01/05 11:43:52;;;;;;;23.90;16.90;;;3.40;99.90;;;;;;5048412;28;20821;-77
2021/01/05 11:46:19;;;;;;;23.67;16.63;;;3.40;99.90;;;;;;5047576;28;20600;-76
2021/01/05 11:48:46;;;;;;;21.30;14.67;;;3.50;99.90;;;;;;5048576;28;20444;-76
2021/01/05 11:51:18;;;;;;;23.50;16.90;;;3.50;99.90;;;;;;5051966;28;20603;-75
2021/01/05 11:53:45;;;;;;;19.67;14.27;;;3.40;99.90;;;;;;5067339;28;20491;-76
2021/01/05 11:56:18;;;;;;;22.27;14.40;;;3.40;99.90;;;;;;5067193;28;21309;-76
2021/01/05 11:58:45;;;;;;;22.53;15.90;;;3.40;99.90;;;;;;5068884;28;20534;-76
2021/01/05 12:01:11;;;;;;;24.03;15.43;;;3.40;99.90;;;;;;5075717;28;20502;-76
2021/01/05 12:03:38;;;;;;;22.70;15.63;;;3.50;99.90;;;;;;5085093;28;20498;-77
2021/01/05 12:06:05;;;;;;;21.67;15.17;;;3.50;99.90;;;;;;5070506;28;20481;-75
2021/01/05 12:08:32;;;;;;;23.60;15.20;;;3.50;99.90;;;;;;5064132;28;20582;-74
2021/01/05 12:10:59;;;;;;;19.10;13.70;;;3.50;99.90;;;;;;5074447;28;20470;-77
2021/01/05 12:13:25;;;;;;;21.50;13.90;;;3.50;99.90;;;;;;5068271;28;20538;-77
2021/01/05 12:15:52;;;;;;;22.43;14.57;;;3.50;99.90;;;;;;5067760;28;20530;-75
2021/01/05 12:18:18;;;;;;;19.70;14.00;;;3.50;99.90;;;;;;5068354;28;20546;-77
2021/01/05 12:20:44;;;;;;;21.73;16.67;;;3.60;99.90;;;;;;5069769;28;20529;-75
2021/01/05 12:23:11;;;;;;;20.57;14.60;;;3.60;99.90;;;;;;5068926;28;20489;-74
2021/01/05 12:25:39;;;;;;;21.57;15.30;;;3.60;99.90;;;;;;5068995;28;20486;-75
2021/01/05 12:28:06;;;;;;;23.33;15.20;;;3.60;99.90;;;;;;5069126;28;20451;-74
2021/01/05 12:30:33;;;;;;;17.67;14.87;;;3.60;99.90;;;;;;5068810;28;21051;-74
2021/01/05 12:33:00;;;;;;;21.00;14.57;;;3.60;99.90;;;;;;5069121;28;20443;-81
2021/01/05 12:35:27;;;;;;;22.70;14.87;;;3.60;99.90;;;;;;5067276;28;20487;-74
2021/01/05 12:37:54;;;;;;;21.67;13.07;;;3.60;99.90;;;;;;5061839;28;20514;-72
2021/01/05 12:40:20;;;;;;;22.90;15.50;;;3.60;99.90;;;;;;5074456;28;20454;-75
2021/01/05 12:42:47;;;;;;;23.10;15.40;;;3.60;99.90;;;;;;5062772;28;20467;-75
2021/01/05 12:45:14;;;;;;;24.37;15.27;;;3.60;99.90;;;;;;5068439;28;20541;-72
2021/01/05 12:47:40;;;;;;;23.07;15.73;;;3.70;99.90;;;;;;5066388;28;20542;-73
2021/01/05 12:50:08;;;;;;;20.87;14.50;;;3.70;99.90;;;;;;5067492;28;20443;-72